Nearby METAR Reports

 

KPDX - Portland, Oregon, USA
Distance from station: NE 9mi, 14km
Updated: Fri, 04-Dec-2020 2:53pm PST
Clear
Clear
 Wind from calm
Wind: Calm
Temperature: 52°F , 11°C
Dew Point: 34°F , 1°C
Humidity: 50%
Barometer: 30.33 inHg , 1027.1 hPa
Clouds: Clear
Visibility: 10 miles , 16 km
2020/12/04 22:53 KPDX 042253Z 00000KT 10SM CLR 11/01 A3033 RMK AO2 SLP273 T01110011
KTMK - Tillamook, Oregon, USA
Distance from station: N 9mi, 14km
Updated: Fri, 04-Dec-2020 2:35pm PST
Clear
Clear
 Wind from calm
Wind: Calm
Temperature: 63°F , 17°C
Dew Point: 36°F , 2°C
Humidity: 37%
Barometer: 30.25 inHg , 1024.4 hPa
Clouds: Clear
Visibility: 10 miles , 16 km
2020/12/04 22:35 KTMK 042235Z AUTO 00000KT 10SM CLR 17/02 A3025 RMK AO2
 
KSLE - Salem, Oregon, USA
Distance from station: NNW 14mi, 23km
Updated: Fri, 04-Dec-2020 1:56pm PST
Clear
Clear
 Wind from NE
Wind: NE 6 mph , 9 km/h
Temperature: 50°F , 10°C
Wind Chill: 48°F , 9°C
Dew Point: 34°F , 1°C
Humidity: 54%
Barometer: 30.33 inHg , 1027.1 hPa
Clouds: Clear
Visibility: 10 miles , 16 km
2020/12/04 21:56 KSLE 042156Z 04005KT 10SM CLR 10/01 A3033 RMK AO2 SLP271 T01000011
KEUG - Eugene, Oregon, USA
Distance from station: ENE 12mi, 19km
Updated: Fri, 04-Dec-2020 2:54pm PST
Clear
Clear
 Wind from calm
Wind: Calm
Temperature: 45°F , 7°C
Dew Point: 36°F , 2°C
Humidity: 71%
Barometer: 30.31 inHg , 1026.4 hPa
Clouds: Clear
Visibility: 10 miles , 16 km
2020/12/04 22:54 KEUG 042254Z 00000KT 10SM CLR 07/02 A3031 RMK AO2 SLP266 T00720022
 
KONP - Newport, Oregon, USA
Distance from station: NNW 31mi, 50km
Updated: Fri, 04-Dec-2020 2:35pm PST
Clear
Clear
 Wind from E
Wind: E 17 mph , 28 km/h, Gust: 25 mph , 41 km/h
Temperature: 59°F , 15°C
Dew Point: 30°F , -1°C
Humidity: 34%
Barometer: 30.25 inHg , 1024.4 hPa
Clouds: Clear
Visibility: 10 miles , 16 km
2020/12/04 22:35 KONP 042235Z AUTO 08015G22KT 10SM CLR 15/M01 A3025 RMK AO2
K6S2 - Florence, Oregon, USA
Distance from station: NW 21mi, 34km
Updated: Fri, 04-Dec-2020 2:35pm PST
Clear
Clear
 Wind from E
Wind: E 7 mph , 11 km/h
Temperature: 57°F , 14°C
Dew Point: 36°F , 2°C
Humidity: 44%
Barometer: 30.22 inHg , 1023.4 hPa
Clouds: Clear
Visibility: 10 miles , 16 km
2020/12/04 22:35 K6S2 042235Z AUTO 08006KT 10SM CLR 14/02 A3022 RMK AO2 T01400018
 
KDLS - The Dalles, Oregon, USA
Distance from station: NW 30mi, 49km
Updated: Fri, 04-Dec-2020 2:53pm PST
Overcast
Overcast
 Wind from SSE
Wind: SSE 3 mph , 6 km/h
Temperature: 34°F , 1°C
Dew Point: 30°F , -1°C
Humidity: 87%
Barometer: 30.61 inHg , 1036.6 hPa
Clouds: Overcast
Visibility: 8 miles , 13 km
Cloud details: Overcast 900 ft
2020/12/04 22:53 KDLS 042253Z AUTO 16003KT 8SM OVC009 01/M01 A3061 RMK AO2 SLP368 T00111011
KRDM - Redmond, Oregon, USA
Distance from station: ESE 27mi, 43km
Updated: Fri, 04-Dec-2020 1:56pm PST
Clear
Clear
 Wind from N
Wind: N 8 mph , 13 km/h
Temperature: 48°F , 9°C
Wind Chill: 44°F , 7°C
Dew Point: 25°F , -4°C
Humidity: 40%
Barometer: 30.44 inHg , 1030.8 hPa
Clouds: Clear
Visibility: 10 miles , 16 km
2020/12/04 21:56 KRDM 042156Z 35007KT 10SM CLR 09/M04 A3044 RMK AO2 SLP321 T00891044
 
KPDT - Pendleton, Oregon, USA
Distance from station: SSE 27mi, 44km
Updated: Fri, 04-Dec-2020 2:53pm PST
Freezing fog, Overcast
Freezing fog, Overcast
 Wind from WNW
Wind: WNW 10 mph , 17 km/h
Temperature: 30°F , -1°C
Wind Chill: 21°F , -6°C
Dew Point: 30°F , -1°C
Humidity: 100%
Barometer: 30.55 inHg , 1034.5 hPa
Summary: Freezing Fog
Clouds: Overcast
Visibility: 1/4 mile , 0.4 km
Cloud details: Overcast 100 ft
2020/12/04 22:53 KPDT 042253Z 30009KT 1/4SM R26/1200V4000FT FZFG VV001 M01/M01 A3055 RMK AO2 SLP357 T10061006
KGCD - John Day, Oregon, USA
Distance from station: WNW 31mi, 50km
Updated: Fri, 04-Dec-2020 2:35pm PST
Clear
Clear
 Wind from calm
Wind: Calm
Temperature: 45°F , 7°C
Dew Point: 21°F , -6°C
Humidity: 39%
Barometer: 30.44 inHg , 1030.8 hPa
Clouds: Clear
Visibility: 10 miles , 16 km
2020/12/04 22:35 KGCD 042235Z AUTO 00000KT 10SM CLR 07/M06 A3044 RMK AO2 T00741058
 
KAST - Astoria, Oregon, USA
Distance from station: N 28mi, 44km
Updated: Fri, 04-Dec-2020 1:55pm PST
Clear
Clear
 Wind from NE
Wind: NE 7 mph , 11 km/h
Temperature: 54°F , 12°C
Dew Point: 39°F , 4°C
Humidity: 58%
Barometer: 30.28 inHg , 1025.4 hPa
Clouds: Clear
Visibility: 10 miles , 16 km
2020/12/04 21:55 KAST 042155Z AUTO 05006KT 10SM CLR 12/04 A3028 RMK AO2 SLP252 T01220044
KSEA - Seattle, Washington, USA
Distance from station: NNE 31mi, 51km
Updated: Fri, 04-Dec-2020 2:53pm PST
Clear
Clear
 Wind from N
Wind: N 5 mph , 7 km/h
Temperature: 54°F , 12°C
Dew Point: 37°F , 3°C
Humidity: 54%
Barometer: 30.34 inHg , 1027.4 hPa
Clouds: Clear
Visibility: 10 miles , 16 km
2020/12/04 22:53 KSEA 042253Z 01004KT 10SM CLR 12/03 A3034 RMK AO2 SLP283 T01220033